Time;durP1;ratioP1;P1;durP2;ratioP2;P2;SDS_P1;SDS_P2;PMS_P1;PMS_P2;Temp;Humidity;BMP_temperature;BMP_pressure;BME280_temperature;BME280_humidity;BME280_pressure;Samples;Min_cycle;Max_cycle;Signal;HPM_P1;HPM_P2
2021/01/28 00:00:23;;;;;;;23.13;18.45;;;7.10;1.00;;;;;;5034941;28;20022;-80
2021/01/28 00:02:49;;;;;;;24.02;18.75;;;7.00;1.00;;;;;;5035375;28;20018;-80
2021/01/28 00:05:16;;;;;;;25.42;19.80;;;7.10;1.00;;;;;;5035312;28;20100;-80
2021/01/28 00:07:41;;;;;;;24.38;19.77;;;7.10;1.00;;;;;;5034558;28;20088;-80
2021/01/28 00:10:08;;;;;;;23.95;18.65;;;7.00;1.00;;;;;;5034815;28;20111;-80
2021/01/28 00:12:34;;;;;;;27.77;19.77;;;7.10;1.00;;;;;;5033991;28;20044;-80
2021/01/28 00:14:59;;;;;;;25.05;19.92;;;7.00;1.00;;;;;;5035064;28;20017;-80
2021/01/28 00:17:25;;;;;;;25.75;20.45;;;7.00;1.00;;;;;;5034930;28;20029;-80
2021/01/28 00:19:51;;;;;;;24.65;20.23;;;7.00;1.00;;;;;;5034931;28;20017;-80
2021/01/28 00:22:16;;;;;;;26.15;20.38;;;6.80;1.00;;;;;;5034803;28;20053;-80
2021/01/28 00:24:42;;;;;;;26.02;20.35;;;6.80;1.00;;;;;;5034440;28;20067;-80
2021/01/28 00:27:07;;;;;;;22.88;18.88;;;6.80;1.00;;;;;;5034049;28;20107;-81
2021/01/28 00:29:33;;;;;;;26.33;19.70;;;6.90;1.00;;;;;;5034457;28;20032;-81
2021/01/28 00:31:59;;;;;;;21.88;17.98;;;6.90;1.00;;;;;;5034475;28;20478;-80
2021/01/28 00:34:25;;;;;;;22.65;18.35;;;6.80;1.00;;;;;;5034394;28;20101;-80
2021/01/28 00:36:51;;;;;;;21.80;17.67;;;6.90;1.00;;;;;;5034407;28;20032;-80
2021/01/28 00:39:16;;;;;;;22.67;17.85;;;7.00;1.00;;;;;;5033830;28;20057;-80
2021/01/28 00:41:42;;;;;;;20.05;16.65;;;7.00;1.00;;;;;;5034451;28;20525;-80
2021/01/28 00:44:08;;;;;;;21.08;17.33;;;7.00;1.00;;;;;;5034826;28;20048;-80
2021/01/28 00:46:33;;;;;;;20.95;16.75;;;7.00;1.00;;;;;;5034493;28;20029;-81
2021/01/28 00:48:59;;;;;;;21.45;18.15;;;6.90;1.00;;;;;;5033246;28;20037;-80
2021/01/28 00:51:24;;;;;;;19.20;16.20;;;7.10;1.00;;;;;;5034491;28;20519;-80
2021/01/28 00:53:50;;;;;;;18.45;14.38;;;7.00;1.00;;;;;;5034088;28;20026;-81
2021/01/28 00:56:16;;;;;;;13.85;12.20;;;7.00;1.00;;;;;;5032103;28;20044;-80
2021/01/28 00:58:41;;;;;;;16.73;12.57;;;7.00;1.00;;;;;;5034007;28;20025;-80
2021/01/28 01:01:07;;;;;;;14.45;12.15;;;7.00;1.00;;;;;;5033986;28;20026;-80
2021/01/28 01:03:33;;;;;;;15.63;12.90;;;7.10;1.00;;;;;;5033842;28;20088;-80
2021/01/28 01:05:58;;;;;;;16.83;12.95;;;7.10;1.00;;;;;;5033374;28;20451;-80
2021/01/28 01:08:27;;;;;;;18.65;13.80;;;7.10;1.00;;;;;;5033335;28;20065;-80
2021/01/28 01:11:08;;;;;;;18.77;13.40;;;7.20;1.00;;;;;;5032478;28;20451;-80
2021/01/28 01:13:36;;;;;;;18.23;14.43;;;7.10;1.00;;;;;;5030781;28;20022;-80
2021/01/28 01:16:06;;;;;;;16.50;14.13;;;7.10;1.00;;;;;;5033820;28;20057;-81
2021/01/28 01:18:33;;;;;;;22.55;17.45;;;7.20;1.00;;;;;;5033995;28;20017;-80
2021/01/28 01:21:00;;;;;;;19.33;14.80;;;7.20;1.00;;;;;;5033822;28;20034;-80
2021/01/28 01:23:26;;;;;;;18.58;13.90;;;7.20;1.00;;;;;;5033662;28;20071;-81
2021/01/28 01:25:52;;;;;;;16.38;13.05;;;7.10;1.00;;;;;;5032987;28;20029;-81
2021/01/28 01:28:18;;;;;;;15.43;12.73;;;7.10;1.00;;;;;;5033930;28;20033;-80
2021/01/28 01:30:44;;;;;;;16.42;12.70;;;7.20;1.00;;;;;;5033080;28;20063;-80
2021/01/28 01:33:10;;;;;;;15.90;13.00;;;7.20;1.00;;;;;;5033359;28;20017;-80
2021/01/28 01:35:36;;;;;;;16.83;13.23;;;7.20;1.00;;;;;;5032537;28;20120;-80
2021/01/28 01:38:02;;;;;;;18.10;14.48;;;7.50;1.00;;;;;;5032729;28;20109;-80
2021/01/28 01:40:37;;;;;;;18.27;12.85;;;7.30;1.00;;;;;;5033194;28;20029;-80
2021/01/28 01:43:03;;;;;;;17.42;13.15;;;7.20;1.00;;;;;;5033173;28;20026;-80
2021/01/28 01:45:38;;;;;;;14.98;12.45;;;7.20;1.00;;;;;;5033135;28;20074;-81
2021/01/28 01:48:16;;;;;;;16.25;12.65;;;7.70;1.00;;;;;;5033303;28;20028;-80
2021/01/28 01:50:48;;;;;;;14.95;12.30;;;7.20;1.00;;;;;;5033068;28;20025;-80
2021/01/28 01:53:24;;;;;;;15.82;12.18;;;7.70;1.00;;;;;;5032473;28;20383;-80
2021/01/28 01:55:55;;;;;;;17.27;13.45;;;7.40;1.00;;;;;;5030787;28;20399;-81
2021/01/28 01:58:50;;;;;;;14.35;11.75;;;7.80;1.00;;;;;;5033009;28;20501;-80
2021/01/28 02:01:19;;;;;;;15.95;12.43;;;7.30;1.00;;;;;;5021007;28;20049;-80
2021/01/28 02:03:45;;;;;;;17.13;13.23;;;7.40;1.00;;;;;;5026125;28;20033;-80
2021/01/28 02:06:26;;;;;;;16.23;13.07;;;7.30;1.00;;;;;;5032138;28;20037;-80
2021/01/28 02:08:56;;;;;;;15.93;11.48;;;7.50;1.00;;;;;;5017310;28;20021;-80
2021/01/28 02:11:22;;;;;;;18.50;12.43;;;7.50;1.00;;;;;;5032758;28;20025;-80
2021/01/28 02:13:50;;;;;;;17.05;12.98;;;7.50;1.00;;;;;;5032728;28;20021;-80
2021/01/28 02:16:19;;;;;;;16.58;13.05;;;7.80;1.00;;;;;;5032750;28;20033;-80
2021/01/28 02:18:46;;;;;;;16.17;12.65;;;7.40;1.00;;;;;;5032324;28;20017;-80
2021/01/28 02:21:38;;;;;;;15.65;11.80;;;7.90;1.00;;;;;;5032537;28;20025;-80
2021/01/28 02:24:14;;;;;;;16.83;12.35;;;7.80;1.00;;;;;;5029659;28;20033;-81
2021/01/28 02:26:48;;;;;;;16.02;12.73;;;7.50;1.00;;;;;;5032309;28;20021;-80
2021/01/28 02:29:14;;;;;;;16.52;13.15;;;7.50;1.00;;;;;;5032361;28;20021;-80
2021/01/28 02:31:44;;;;;;;17.05;13.13;;;7.70;1.00;;;;;;5032622;28;20021;-81
2021/01/28 02:34:09;;;;;;;17.42;13.63;;;7.90;1.00;;;;;;5032289;28;20052;-80
2021/01/28 02:36:44;;;;;;;22.77;15.10;;;8.10;1.00;;;;;;5032075;28;20092;-80
2021/01/28 02:39:13;;;;;;;19.60;14.75;;;7.40;1.00;;;;;;5031870;28;20014;-81
2021/01/28 02:41:42;;;;;;;18.08;14.02;;;7.50;1.00;;;;;;5032049;28;20525;-80
2021/01/28 02:44:08;;;;;;;19.48;14.23;;;7.50;1.00;;;;;;5032376;28;20471;-81
2021/01/28 02:46:33;;;;;;;18.50;13.38;;;7.90;1.00;;;;;;5032528;28;20155;-81
2021/01/28 02:48:59;;;;;;;26.17;19.20;;;7.50;1.00;;;;;;5031670;28;20021;-81
2021/01/28 02:51:25;;;;;;;27.80;20.45;;;7.80;1.00;;;;;;5032183;28;20034;-80
2021/01/28 02:53:53;;;;;;;27.48;20.35;;;7.90;1.00;;;;;;5031272;28;20435;-81
2021/01/28 02:56:20;;;;;;;26.98;20.63;;;7.20;1.00;;;;;;5031723;28;20021;-80
2021/01/28 02:58:46;;;;;;;23.67;19.08;;;7.10;1.00;;;;;;5032399;28;20037;-81
2021/01/28 03:01:12;;;;;;;27.05;21.08;;;7.00;1.00;;;;;;5032048;28;20368;-80
2021/01/28 03:03:37;;;;;;;22.90;18.77;;;6.80;1.00;;;;;;5031511;28;20033;-81
2021/01/28 03:06:05;;;;;;;23.63;18.40;;;6.80;1.00;;;;;;5031487;28;20049;-81
2021/01/28 03:08:31;;;;;;;23.75;17.40;;;6.80;1.00;;;;;;5031530;28;20041;-80
2021/01/28 03:10:57;;;;;;;23.85;17.67;;;6.80;1.00;;;;;;5031651;28;20474;-80
2021/01/28 03:13:23;;;;;;;22.90;17.00;;;6.80;1.00;;;;;;5034536;28;20057;-80
2021/01/28 03:15:49;;;;;;;22.90;16.85;;;6.80;1.00;;;;;;5035946;28;20025;-80
2021/01/28 03:18:16;;;;;;;20.80;16.02;;;6.80;1.00;;;;;;5034929;28;20033;-80
2021/01/28 03:20:42;;;;;;;22.95;17.27;;;6.70;1.00;;;;;;5036347;28;20029;-80
2021/01/28 03:23:09;;;;;;;25.88;17.45;;;6.90;1.00;;;;;;5035118;28;20029;-80
2021/01/28 03:25:35;;;;;;;21.55;16.45;;;6.80;1.00;;;;;;5035797;28;20028;-80
2021/01/28 03:28:02;;;;;;;20.10;16.17;;;7.00;1.00;;;;;;5035535;28;20052;-80
2021/01/28 03:30:30;;;;;;;21.55;16.70;;;7.10;1.00;;;;;;5035623;28;20556;-80
2021/01/28 03:32:56;;;;;;;21.17;16.90;;;7.10;1.00;;;;;;5034987;28;20033;-81
2021/01/28 03:35:23;;;;;;;21.23;15.43;;;7.00;1.00;;;;;;5035850;28;20559;-81
2021/01/28 03:37:49;;;;;;;21.75;16.30;;;7.10;1.00;;;;;;5035657;28;20022;-81
2021/01/28 03:40:22;;;;;;;20.88;16.38;;;7.00;1.00;;;;;;5035712;28;20100;-80
2021/01/28 03:42:47;;;;;;;20.65;15.70;;;7.00;1.00;;;;;;5035959;28;20387;-81
2021/01/28 03:45:14;;;;;;;24.92;16.42;;;7.00;1.00;;;;;;5035584;28;20028;-81
2021/01/28 03:47:40;;;;;;;19.73;15.88;;;7.00;1.00;;;;;;5035084;28;20028;-81
2021/01/28 03:50:07;;;;;;;21.45;16.40;;;6.90;1.00;;;;;;5033864;28;20384;-81
2021/01/28 03:52:33;;;;;;;22.77;17.27;;;7.00;1.00;;;;;;5034523;28;20043;-81
2021/01/28 03:54:59;;;;;;;22.13;16.85;;;7.00;1.00;;;;;;5034511;28;20494;-81
2021/01/28 03:57:25;;;;;;;22.58;16.30;;;7.10;1.00;;;;;;5035462;28;20025;-81
2021/01/28 03:59:50;;;;;;;19.85;16.25;;;7.10;1.00;;;;;;5035482;28;20021;-81
2021/01/28 04:02:16;;;;;;;21.80;16.75;;;7.20;1.00;;;;;;5034565;28;20435;-81
2021/01/28 04:04:41;;;;;;;22.63;16.10;;;7.20;1.00;;;;;;5034999;28;20033;-81
2021/01/28 04:07:07;;;;;;;19.75;15.88;;;7.80;1.00;;;;;;5034476;28;20076;-81
2021/01/28 04:09:33;;;;;;;25.25;17.27;;;7.20;1.00;;;;;;5035301;28;20032;-81
2021/01/28 04:11:59;;;;;;;23.23;15.73;;;7.30;1.00;;;;;;5034420;28;20033;-81
2021/01/28 04:14:24;;;;;;;22.98;17.20;;;7.30;1.00;;;;;;5035150;28;20455;-81
2021/01/28 04:16:50;;;;;;;20.95;16.48;;;7.30;1.00;;;;;;5034718;28;20049;-80
2021/01/28 04:19:16;;;;;;;21.05;16.38;;;7.20;1.00;;;;;;5035137;28;20063;-81
2021/01/28 04:21:41;;;;;;;20.63;15.95;;;7.30;1.00;;;;;;5034137;28;20047;-81
2021/01/28 04:24:07;;;;;;;21.65;15.88;;;7.80;1.00;;;;;;5034357;28;20025;-81
2021/01/28 04:26:34;;;;;;;18.63;15.20;;;7.30;1.00;;;;;;5034811;28;20030;-81
2021/01/28 04:29:01;;;;;;;22.20;15.65;;;7.30;1.00;;;;;;5034817;28;20032;-81
2021/01/28 04:31:27;;;;;;;21.17;15.45;;;7.50;1.00;;;;;;5034109;28;20029;-80
2021/01/28 04:33:52;;;;;;;20.10;15.77;;;7.90;1.00;;;;;;5034476;28;20053;-81
2021/01/28 04:36:18;;;;;;;20.52;15.95;;;7.30;1.00;;;;;;5033984;28;20060;-81
2021/01/28 04:38:44;;;;;;;21.77;16.40;;;7.40;1.00;;;;;;5034831;28;20021;-81
2021/01/28 04:41:19;;;;;;;21.67;16.45;;;7.20;1.00;;;;;;5034463;28;20026;-81
2021/01/28 04:43:48;;;;;;;20.17;16.45;;;7.10;1.00;;;;;;5034719;28;20032;-81
2021/01/28 04:46:29;;;;;;;20.88;16.45;;;7.00;1.00;;;;;;5033534;28;20028;-81
2021/01/28 04:48:55;;;;;;;19.38;16.10;;;7.00;1.00;;;;;;5033876;28;20036;-81
2021/01/28 04:51:24;;;;;;;20.15;16.35;;;6.90;1.00;;;;;;5034177;28;20075;-81
2021/01/28 04:53:55;;;;;;;23.00;16.55;;;6.90;1.00;;;;;;5034459;28;20017;-81
2021/01/28 04:56:25;;;;;;;21.52;16.95;;;6.90;1.00;;;;;;5034026;28;20036;-81
2021/01/28 04:58:56;;;;;;;21.08;15.90;;;7.00;1.00;;;;;;5033983;28;20021;-81
2021/01/28 05:01:30;;;;;;;20.90;15.65;;;7.00;1.00;;;;;;5033501;28;20029;-81
2021/01/28 05:03:57;;;;;;;21.33;16.20;;;7.10;1.00;;;;;;5032668;28;20028;-81
2021/01/28 05:06:23;;;;;;;20.42;16.45;;;7.60;1.00;;;;;;5033254;28;20100;-81
2021/01/28 05:08:49;;;;;;;26.33;17.20;;;7.20;1.00;;;;;;5033788;28;20022;-81
2021/01/28 05:11:22;;;;;;;20.45;16.20;;;7.30;1.00;;;;;;5033688;28;20399;-80
2021/01/28 05:13:48;;;;;;;21.08;16.42;;;7.20;1.00;;;;;;5033827;28;20101;-81
2021/01/28 05:16:33;;;;;;;22.08;17.27;;;7.10;1.00;;;;;;5033637;28;20017;-81
2021/01/28 05:19:01;;;;;;;19.63;15.43;;;7.30;1.00;;;;;;5033489;28;20045;-81
2021/01/28 05:21:37;;;;;;;19.85;15.55;;;7.20;1.00;;;;;;5033331;28;20462;-81
2021/01/28 05:24:28;;;;;;;19.40;15.65;;;7.20;1.00;;;;;;5032938;28;20025;-81
2021/01/28 05:26:53;;;;;;;23.15;15.80;;;7.20;1.00;;;;;;5032451;28;20022;-81
2021/01/28 05:29:22;;;;;;;22.02;16.95;;;7.20;1.00;;;;;;5033203;28;20036;-81
2021/01/28 05:31:49;;;;;;;22.50;16.70;;;7.20;1.00;;;;;;5033532;28;20029;-81
2021/01/28 05:34:30;;;;;;;19.75;15.43;;;7.30;1.00;;;;;;5033412;28;20558;-81
2021/01/28 05:37:23;;;;;;;20.35;16.13;;;7.40;1.00;;;;;;5032849;28;20025;-81
2021/01/28 05:39:48;;;;;;;14.18;11.80;;;7.40;1.00;;;;;;5028392;28;20029;-81
2021/01/28 05:42:34;;;;;;;15.90;12.32;;;7.90;1.00;;;;;;5033386;28;20101;-81
2021/01/28 05:45:06;;;;;;;15.20;12.30;;;7.40;1.00;;;;;;5032715;28;20060;-81
2021/01/28 05:47:33;;;;;;;17.30;13.50;;;7.90;1.00;;;;;;5033206;28;20021;-81
2021/01/28 05:50:20;;;;;;;17.83;13.23;;;7.90;1.00;;;;;;5033247;28;20561;-81
2021/01/28 05:52:47;;;;;;;16.85;11.60;;;7.70;1.00;;;;;;5032546;28;20475;-81
2021/01/28 05:55:16;;;;;;;14.73;10.45;;;8.10;1.00;;;;;;5033352;28;20109;-81
2021/01/28 05:57:51;;;;;;;16.15;11.77;;;7.80;1.00;;;;;;5032889;28;20053;-81
2021/01/28 06:00:34;;;;;;;21.88;14.70;;;7.70;1.00;;;;;;5033183;28;20398;-81
2021/01/28 06:03:17;;;;;;;19.17;14.60;;;7.60;1.00;;;;;;5033178;28;20414;-81
2021/01/28 06:06:02;;;;;;;16.92;12.70;;;7.40;1.00;;;;;;5032528;28;20059;-81
2021/01/28 06:08:48;;;;;;;17.02;11.43;;;7.50;1.00;;;;;;5027641;28;20046;-81
2021/01/28 06:11:44;;;;;;;16.00;12.07;;;7.50;1.00;;;;;;5032327;28;20583;-81
2021/01/28 06:15:04;;;;;;;20.52;15.65;;;7.60;1.00;;;;;;5022344;28;20021;-81
2021/01/28 06:17:38;;;;;;;18.70;14.40;;;7.70;1.00;;;;;;4958793;28;20459;-81
2021/01/28 06:20:21;;;;;;;17.02;13.20;;;7.70;1.00;;;;;;4991209;28;20042;-80
2021/01/28 06:23:23;;;;;;;15.00;11.77;;;7.60;1.00;;;;;;4990444;28;20050;-81
2021/01/28 06:26:22;;;;;;;16.92;12.60;;;7.60;1.00;;;;;;4990860;28;20050;-81
2021/01/28 06:29:11;;;;;;;14.70;9.60;;;7.60;1.00;;;;;;4990862;28;20031;-81
2021/01/28 06:31:53;;;;;;;17.45;11.00;;;8.20;1.00;;;;;;4920236;29;20048;-81
2021/01/28 06:34:43;;;;;;;13.38;9.45;;;7.70;1.00;;;;;;4914164;29;20036;-81
2021/01/28 06:37:27;;;;;;;12.40;8.80;;;7.60;1.00;;;;;;4920991;29;20046;-81
2021/01/28 06:39:54;;;;;;;11.55;9.00;;;7.70;1.00;;;;;;4928506;29;20090;-81
2021/01/28 06:42:33;;;;;;;14.32;9.52;;;7.80;1.00;;;;;;4921970;29;20149;-81
2021/01/28 06:45:21;;;;;;;14.88;9.57;;;7.90;1.00;;;;;;4913986;29;20032;-81
2021/01/28 06:48:06;;;;;;;27.35;18.48;;;7.90;1.00;;;;;;4927298;29;20521;-81
2021/01/28 06:51:04;;;;;;;26.55;19.65;;;7.70;1.00;;;;;;4920540;28;20034;-81
2021/01/28 06:53:48;;;;;;;25.67;19.80;;;7.60;1.00;;;;;;4970926;28;20098;-81
2021/01/28 06:56:32;;;;;;;28.65;20.73;;;7.50;1.00;;;;;;4970897;28;20030;-81
2021/01/28 06:59:00;;;;;;;27.05;19.45;;;7.50;1.00;;;;;;4970964;28;20031;-81
2021/01/28 07:02:12;;;;;;;28.63;20.92;;;7.30;1.00;;;;;;4971151;28;20398;-81
2021/01/28 07:04:56;;;;;;;27.30;20.45;;;7.20;1.00;;;;;;4970724;28;20098;-81
2021/01/28 07:07:25;;;;;;;28.25;20.02;;;7.30;1.00;;;;;;4970399;28;20058;-81
2021/01/28 07:09:51;;;;;;;26.25;19.75;;;7.20;1.00;;;;;;5030895;28;20075;-81
2021/01/28 07:12:23;;;;;;;81.45;39.08;;;7.30;1.00;;;;;;5031527;28;20481;-82
2021/01/28 07:14:50;;;;;;;40.47;25.25;;;7.30;1.00;;;;;;5031564;28;20495;-83
2021/01/28 07:17:35;;;;;;;36.88;24.70;;;7.80;1.00;;;;;;5031530;28;20037;-82
2021/01/28 07:20:12;;;;;;;29.90;21.02;;;7.40;1.00;;;;;;5032181;28;20030;-83
2021/01/28 07:22:41;;;;;;;31.13;21.52;;;7.40;1.00;;;;;;5030655;28;20036;-81
2021/01/28 07:25:32;;;;;;;31.48;21.38;;;7.80;1.00;;;;;;5031847;28;20037;-82
2021/01/28 07:28:13;;;;;;;33.70;22.58;;;7.50;1.00;;;;;;5024509;28;20026;-82
2021/01/28 07:30:42;;;;;;;30.00;22.30;;;7.60;1.00;;;;;;5031799;28;20095;-83
2021/01/28 07:33:28;;;;;;;35.60;22.40;;;7.60;1.00;;;;;;5030021;28;20387;-82
2021/01/28 07:36:12;;;;;;;30.27;21.00;;;8.10;1.00;;;;;;5031573;28;20395;-81
2021/01/28 07:38:46;;;;;;;30.10;21.77;;;7.60;1.00;;;;;;5016473;28;20017;-82
2021/01/28 07:41:15;;;;;;;35.97;23.83;;;7.50;1.00;;;;;;5032056;28;20026;-81
2021/01/28 07:43:43;;;;;;;31.75;21.83;;;7.50;1.00;;;;;;5032548;28;20022;-81
2021/01/28 07:46:13;;;;;;;31.83;23.30;;;8.10;1.00;;;;;;5031295;28;20487;-81
2021/01/28 07:48:40;;;;;;;31.00;23.08;;;7.60;1.00;;;;;;5030830;28;20049;-81
2021/01/28 07:51:44;;;;;;;33.25;23.13;;;8.00;1.00;;;;;;5030668;28;20104;-81
2021/01/28 07:54:25;;;;;;;30.73;20.85;;;7.70;1.00;;;;;;4973565;28;20022;-82
2021/01/28 07:56:50;;;;;;;27.83;20.42;;;7.60;1.00;;;;;;4973715;28;20026;-81
2021/01/28 07:59:33;;;;;;;32.38;20.73;;;8.10;1.00;;;;;;4992699;28;20046;-82
2021/01/28 08:02:09;;;;;;;31.77;21.42;;;7.60;1.00;;;;;;4985253;28;20045;-82
2021/01/28 08:04:42;;;;;;;33.00;19.92;;;7.90;1.00;;;;;;4990582;28;20026;-82
2021/01/28 08:07:10;;;;;;;29.70;19.20;;;7.60;1.00;;;;;;4992177;28;20153;-82
2021/01/28 08:09:53;;;;;;;25.92;18.10;;;7.70;1.00;;;;;;4991109;28;20480;-81
2021/01/28 08:12:25;;;;;;;25.42;18.23;;;7.70;1.00;;;;;;4991636;28;20057;-80
2021/01/28 08:14:53;;;;;;;23.80;17.75;;;7.60;1.00;;;;;;4986174;28;20086;-80
2021/01/28 08:17:31;;;;;;;23.30;16.77;;;8.10;1.00;;;;;;4993083;28;20046;-80
2021/01/28 08:20:19;;;;;;;21.77;16.45;;;7.70;1.00;;;;;;4990852;28;20019;-87
2021/01/28 08:23:37;;;;;;;23.23;17.63;;;7.70;1.00;;;;;;4992008;28;20032;-85
2021/01/28 08:26:22;;;;;;;24.38;16.63;;;7.70;1.00;;;;;;4991994;28;20034;-82
2021/01/28 08:28:48;;;;;;;26.27;17.95;;;7.80;1.00;;;;;;4992827;28;20092;-82
2021/01/28 08:31:34;;;;;;;27.40;18.08;;;7.90;1.00;;;;;;4992220;28;20042;-81
2021/01/28 08:34:03;;;;;;;29.85;19.50;;;7.80;1.00;;;;;;4975182;28;20483;-81
2021/01/28 08:36:40;;;;;;;24.90;17.05;;;7.70;1.00;;;;;;4974831;28;20037;-81
2021/01/28 08:39:11;;;;;;;25.23;16.48;;;7.90;1.00;;;;;;4982341;28;20026;-83
2021/01/28 08:41:37;;;;;;;21.00;15.88;;;8.00;1.00;;;;;;4992978;28;20037;-82
2021/01/28 08:44:06;;;;;;;22.38;16.08;;;8.10;1.00;;;;;;4973810;28;20062;-80
2021/01/28 08:46:33;;;;;;;21.33;15.10;;;8.20;1.00;;;;;;4992404;28;20113;-80
2021/01/28 08:49:05;;;;;;;25.02;15.02;;;8.20;1.00;;;;;;4989025;28;20026;-80
2021/01/28 08:51:34;;;;;;;19.92;12.60;;;8.30;1.00;;;;;;4991343;28;20065;-80
2021/01/28 08:54:22;;;;;;;16.15;10.63;;;8.40;1.00;;;;;;4992580;28;20022;-81
2021/01/28 08:56:50;;;;;;;15.10;9.90;;;8.50;1.00;;;;;;5006086;28;20057;-80
2021/01/28 08:59:18;;;;;;;17.65;10.63;;;8.60;1.00;;;;;;5033369;28;20679;-80
2021/01/28 09:01:50;;;;;;;15.50;9.82;;;8.70;1.00;;;;;;5033677;28;20036;-81
2021/01/28 09:04:33;;;;;;;13.00;9.13;;;8.80;1.00;;;;;;5028445;28;20027;-80
2021/01/28 09:06:59;;;;;;;13.35;8.88;;;8.90;1.00;;;;;;5033363;28;20548;-81
2021/01/28 09:09:30;;;;;;;14.45;7.22;;;9.00;1.00;;;;;;5032967;28;20022;-80
2021/01/28 09:12:15;;;;;;;10.88;7.20;;;9.10;1.00;;;;;;5032118;28;20219;-81
2021/01/28 09:14:42;;;;;;;10.55;6.07;;;9.30;1.00;;;;;;5033682;28;20021;-80
2021/01/28 09:17:29;;;;;;;8.15;5.70;;;9.40;1.00;;;;;;5028151;28;20060;-81
2021/01/28 09:19:59;;;;;;;12.20;8.05;;;9.60;1.00;;;;;;5033566;28;20032;-80
2021/01/28 09:22:45;;;;;;;17.75;13.07;;;9.70;1.00;;;;;;5031822;28;20087;-81
2021/01/28 09:25:20;;;;;;;22.23;17.20;;;9.50;1.00;;;;;;5032288;28;20037;-84
2021/01/28 09:28:00;;;;;;;19.85;16.35;;;9.20;1.00;;;;;;5032394;28;20033;-84
2021/01/28 09:30:35;;;;;;;22.70;16.98;;;9.10;1.00;;;;;;5033525;28;20065;-84
2021/01/28 09:33:21;;;;;;;20.92;16.48;;;9.20;1.00;;;;;;5032932;28;20056;-84
2021/01/28 09:36:29;;;;;;;21.27;16.27;;;9.00;1.00;;;;;;5032748;28;20014;-84
2021/01/28 09:39:05;;;;;;;21.95;16.15;;;9.10;1.00;;;;;;4991808;28;20444;-84
2021/01/28 09:41:52;;;;;;;25.25;16.75;;;9.10;1.00;;;;;;4991319;28;20046;-84
2021/01/28 09:44:29;;;;;;;23.25;16.58;;;9.20;1.00;;;;;;4990280;28;20042;-84
2021/01/28 09:47:19;;;;;;;21.70;16.85;;;9.40;1.00;;;;;;4991774;28;20439;-84
2021/01/28 09:49:47;;;;;;;25.00;17.58;;;9.30;1.00;;;;;;4990909;28;20033;-84
2021/01/28 09:52:18;;;;;;;23.55;16.33;;;9.40;1.00;;;;;;4975472;28;20459;-84
2021/01/28 09:54:44;;;;;;;15.07;12.00;;;9.60;1.00;;;;;;4991437;28;20041;-84
2021/01/28 09:57:09;;;;;;;12.70;9.75;;;9.70;1.00;;;;;;4991340;28;20459;-84
2021/01/28 09:59:35;;;;;;;11.57;7.25;;;9.90;1.00;;;;;;4991735;28;20026;-84
2021/01/28 10:02:01;;;;;;;9.13;5.05;;;10.00;1.00;;;;;;4991269;28;20411;-80
2021/01/28 10:04:26;;;;;;;7.75;5.20;;;10.20;1.00;;;;;;4990845;28;20030;-81
2021/01/28 10:06:52;;;;;;;6.47;4.78;;;10.40;1.00;;;;;;4991372;28;20066;-84
2021/01/28 10:09:17;;;;;;;6.20;4.45;;;10.50;1.00;;;;;;4991692;28;20035;-84
2021/01/28 10:11:45;;;;;;;6.82;3.90;;;10.70;1.00;;;;;;4991083;28;20030;-84
2021/01/28 10:14:10;;;;;;;6.57;3.55;;;10.90;1.00;;;;;;5009583;28;20033;-84
2021/01/28 10:16:36;;;;;;;3.60;2.10;;;10.90;1.00;;;;;;5027808;28;20097;-84
2021/01/28 10:19:02;;;;;;;5.40;2.30;;;10.90;1.00;;;;;;5031412;28;20044;-84
2021/01/28 10:21:27;;;;;;;3.00;2.00;;;11.00;1.00;;;;;;5031166;28;20029;-84
2021/01/28 10:23:53;;;;;;;3.10;1.92;;;11.00;1.00;;;;;;5030300;28;20030;-84
2021/01/28 10:26:18;;;;;;;2.05;1.40;;;11.00;1.00;;;;;;5030281;28;20025;-84
2021/01/28 10:28:44;;;;;;;2.53;0.93;;;11.00;1.00;;;;;;5031184;28;20052;-84
2021/01/28 10:31:10;;;;;;;2.17;1.10;;;11.00;1.00;;;;;;5031700;28;20068;-84
2021/01/28 10:33:37;;;;;;;1.48;1.08;;;10.90;1.00;;;;;;5030646;28;20029;-84
2021/01/28 10:36:07;;;;;;;1.27;1.10;;;11.00;1.00;;;;;;5031225;28;20018;-84
2021/01/28 10:38:34;;;;;;;1.77;1.15;;;11.00;1.00;;;;;;5032126;28;20040;-84
2021/01/28 10:41:00;;;;;;;1.27;1.10;;;11.00;1.00;;;;;;5031136;28;20116;-84
2021/01/28 10:43:26;;;;;;;1.52;1.13;;;11.10;1.00;;;;;;5032703;28;20045;-84
2021/01/28 10:45:52;;;;;;;3.90;1.80;;;11.20;1.00;;;;;;5032309;28;20029;-84
2021/01/28 10:48:18;;;;;;;3.55;2.30;;;11.30;1.00;;;;;;5032008;28;20025;-85
2021/01/28 10:50:44;;;;;;;2.22;1.77;;;11.30;1.00;;;;;;5032502;28;20025;-84
2021/01/28 10:53:10;;;;;;;2.95;1.90;;;11.30;1.00;;;;;;5032260;28;20185;-84
2021/01/28 10:55:36;;;;;;;2.25;1.50;;;11.40;1.00;;;;;;5032238;28;20029;-84
2021/01/28 10:58:02;;;;;;;1.38;1.00;;;11.50;1.00;;;;;;5032476;28;20040;-84
2021/01/28 11:00:30;;;;;;;1.10;1.00;;;11.40;1.00;;;;;;5032317;28;20021;-84
2021/01/28 11:02:56;;;;;;;2.92;1.20;;;11.40;1.00;;;;;;5032013;28;20026;-84
2021/01/28 11:05:25;;;;;;;3.75;1.20;;;11.60;1.00;;;;;;5032302;28;20115;-84
2021/01/28 11:07:51;;;;;;;3.88;1.92;;;11.80;1.00;;;;;;5031919;28;20050;-84
2021/01/28 11:10:19;;;;;;;4.93;2.50;;;12.00;1.00;;;;;;5032249;28;20030;-85
2021/01/28 11:12:46;;;;;;;4.13;1.80;;;12.20;1.00;;;;;;5030732;28;20112;-85
2021/01/28 11:15:12;;;;;;;1.83;1.20;;;12.20;1.00;;;;;;5032137;28;20505;-84
2021/01/28 11:17:38;;;;;;;3.15;1.58;;;12.30;1.00;;;;;;5031859;28;20026;-85
2021/01/28 11:20:05;;;;;;;3.40;1.38;;;12.30;1.00;;;;;;5032248;28;20106;-84
2021/01/28 11:22:31;;;;;;;1.58;1.00;;;12.20;1.00;;;;;;5030750;28;20076;-85
2021/01/28 11:24:56;;;;;;;1.25;0.95;;;12.10;1.00;;;;;;5030655;28;20033;-83
2021/01/28 11:27:22;;;;;;;4.07;1.00;;;12.00;1.00;;;;;;5032312;28;20483;-84
2021/01/28 11:29:48;;;;;;;1.70;0.85;;;11.90;1.00;;;;;;5032081;28;20029;-85
2021/01/28 11:32:13;;;;;;;1.83;1.00;;;11.80;1.00;;;;;;5032058;28;20029;-84
2021/01/28 11:34:41;;;;;;;1.65;0.90;;;11.80;1.00;;;;;;5035142;28;20025;-84
2021/01/28 11:37:06;;;;;;;1.67;1.00;;;11.90;1.00;;;;;;5036512;28;20014;-85
2021/01/28 11:39:32;;;;;;;1.60;0.90;;;11.90;1.00;;;;;;5036349;28;20030;-87
2021/01/28 11:41:58;;;;;;;2.80;1.00;;;12.10;1.00;;;;;;5036296;28;20037;-84
2021/01/28 11:44:23;;;;;;;1.40;1.10;;;12.10;1.00;;;;;;5036411;28;20021;-84
2021/01/28 11:46:49;;;;;;;2.65;1.25;;;12.10;1.00;;;;;;5036014;28;20021;-85
2021/01/28 11:49:14;;;;;;;1.52;1.10;;;12.10;1.00;;;;;;5034809;28;20406;-84
2021/01/28 11:51:40;;;;;;;2.25;1.75;;;12.00;1.00;;;;;;5034874;28;20030;-85
2021/01/28 11:54:06;;;;;;;1.95;1.50;;;12.10;1.00;;;;;;5035830;28;20035;-85
2021/01/28 11:56:32;;;;;;;2.50;1.27;;;12.00;1.00;;;;;;5035632;28;20021;-84
2021/01/28 11:58:57;;;;;;;5.22;1.50;;;12.00;1.00;;;;;;5035874;28;20049;-85
2021/01/28 12:01:23;;;;;;;3.95;3.03;;;11.90;1.00;;;;;;5035469;28;20027;-85
2021/01/28 12:03:49;;;;;;;4.72;3.42;;;11.90;1.00;;;;;;5035598;28;20025;-86
2021/01/28 12:06:15;;;;;;;3.45;1.48;;;11.80;1.00;;;;;;5034867;28;20042;-85
2021/01/28 12:08:40;;;;;;;3.45;2.30;;;11.90;1.00;;;;;;5034477;28;20034;-85
2021/01/28 12:11:06;;;;;;;3.38;2.70;;;12.10;1.00;;;;;;5035117;28;20025;-84
2021/01/28 12:13:31;;;;;;;5.85;4.47;;;12.40;1.00;;;;;;5034986;28;20089;-84
2021/01/28 12:15:57;;;;;;;4.07;3.10;;;12.70;1.00;;;;;;5028930;28;20021;-84
2021/01/28 12:18:23;;;;;;;3.78;1.58;;;12.80;1.00;;;;;;5033783;28;20030;-84
2021/01/28 12:20:48;;;;;;;1.55;1.20;;;12.80;1.00;;;;;;5033577;28;20021;-84
2021/01/28 12:23:14;;;;;;;4.07;1.40;;;13.10;1.00;;;;;;5034670;28;20017;-85
2021/01/28 12:25:41;;;;;;;2.45;1.40;;;13.50;1.00;;;;;;5034260;28;20446;-84
2021/01/28 12:28:06;;;;;;;1.48;1.35;;;13.40;1.00;;;;;;5028313;28;20013;-84
2021/01/28 12:30:32;;;;;;;1.45;1.20;;;13.30;1.00;;;;;;5034101;28;20026;-84
2021/01/28 12:32:57;;;;;;;3.00;1.42;;;13.10;1.00;;;;;;5034210;28;20083;-84
2021/01/28 12:35:23;;;;;;;3.20;1.88;;;13.20;1.00;;;;;;5034559;28;20097;-84
2021/01/28 12:37:49;;;;;;;2.13;1.40;;;13.30;1.00;;;;;;5034333;28;20053;-84
2021/01/28 12:40:18;;;;;;;1.73;1.40;;;13.20;1.00;;;;;;5034195;28;20029;-84
2021/01/28 12:42:44;;;;;;;10.77;9.02;;;13.20;1.00;;;;;;5033453;28;20025;-84
2021/01/28 12:45:11;;;;;;;15.05;12.00;;;12.90;1.00;;;;;;5032272;28;20036;-84
2021/01/28 12:47:36;;;;;;;15.70;13.70;;;12.30;1.00;;;;;;5033812;28;20033;-84
2021/01/28 12:50:06;;;;;;;14.10;11.95;;;12.10;1.00;;;;;;5034018;28;20028;-84
2021/01/28 12:52:32;;;;;;;14.35;11.63;;;12.00;1.00;;;;;;5031849;28;20060;-84
2021/01/28 12:54:57;;;;;;;13.73;11.98;;;11.80;1.00;;;;;;5027113;28;20514;-84
2021/01/28 12:57:23;;;;;;;9.05;6.68;;;12.00;1.00;;;;;;5033835;28;20060;-84
2021/01/28 12:59:48;;;;;;;15.63;12.52;;;11.90;1.00;;;;;;5034094;28;20022;-84
2021/01/28 13:02:14;;;;;;;6.93;5.35;;;11.90;1.00;;;;;;5034575;28;21118;-84
2021/01/28 13:04:40;;;;;;;17.80;13.90;;;12.00;1.00;;;;;;5031495;28;20490;-84
2021/01/28 13:07:05;;;;;;;17.48;14.00;;;11.80;1.00;;;;;;5032280;28;20049;-84
2021/01/28 13:09:31;;;;;;;16.70;14.75;;;11.70;1.00;;;;;;5033383;28;20026;-84